• Join FlightAware (Why Join?)
  • Login
  • US Flag 
09:27AM EDT


 

Airport Tracker/Info


-or-


 

Live Flight TrackerFlight Track Log ✈ N760XJ ✈ 20-Jul-2012 ✈ KSWF - KFRG

Flight Track Log - Related Links

Times and Time Zones

All times are in EDT time to prevent confusion due to time zone crossing. See the N760XJ flight status page for this flight to view local times or setup timezone preferences in your user account.

Time Position Orientation Groundspeed Altitude Reporting Facility
EDT Latitude Longitude Course Direction KTS MPH feet Rate Location/Type
03:58PM 41.5333 -74.0333 45° Northeast 234 269 4,200  Level New York TRACON
03:59PM 41.5833 -73.9667 77° East 258 297 5,000 360 Climbing New York TRACON
04:00PM 41.6000 -73.8667 75° East 262 302 5,000  Level New York TRACON
04:00PM 41.6167 -73.7833 90° East 260 299 5,000  Level New York TRACON
04:01PM 41.6167 -73.7000 114° Southeast 259 298 5,000  Level New York TRACON
04:02PM 41.5833 -73.6000 118° Southeast 257 296 5,000 -420 Level New York TRACON
04:03PM 41.5500 -73.5167 135° Southeast 255 293 4,200 -480 Descending New York TRACON
04:05PM 41.5000 -73.4500 143° Southeast 243 280 4,000 -120 Descending New York TRACON
04:06PM 41.4500 -73.4000 151° Southeast 245 282 4,000  Level New York TRACON
04:07PM 41.3833 -73.3500 135° Southeast 250 288 4,000  Level New York TRACON
04:08PM 41.3333 -73.2833 143° Southeast 247 284 4,000  Level New York TRACON
04:09PM 41.2833 -73.2333 151° Southeast 249 287 4,000  Level New York TRACON
04:10PM 41.2167 -73.1833 143° Southeast 244 281 4,000  Level New York TRACON
04:11PM 41.1667 -73.1333 135° Southeast 243 280 4,000  Level New York TRACON
04:12PM 41.1167 -73.0667 143° Southeast 240 276 4,000  Level New York TRACON
04:13PM 41.0667 -73.0167 217° Southwest 269 310 4,000  Level New York TRACON
04:14PM 41.0000 -73.0833 217° Southwest 282 325 4,000 -300 Level New York TRACON
04:15PM 40.9500 -73.1333 217° Southwest 262 302 3,400 -540 Descending New York TRACON
04:16PM 40.8833 -73.2000 255° West 253 291 3,000 -240 Descending New York TRACON
04:17PM 40.8667 -73.2833 270° West 257 296 3,000  Level New York TRACON
04:18PM 40.8667 -73.3667 270° West 251 289 3,000 -120 Level New York TRACON
04:19PM 40.8667 -73.4667 252° West 231 266 2,800 -480 Descending New York TRACON
04:20PM 40.8500 -73.5333 201° Southwest 212 244 2,100 -420 Descending New York TRACON
04:21PM 40.8167 -73.5500 123° Southeast 208 239 2,000 -300 Descending New York TRACON
04:22PM 40.7833 -73.4833 123° Southeast 166 191 1,600 -600 Descending New York TRACON
04:23PM 40.7667 -73.4500 143° Southeast 119 137 900 -720 Descending New York TRACON
04:30PM 40.7167 -73.4000 320° Northwest  Level FlightAware Approximate
04:31PM 40.7674 -73.4563 320° Northwest  Level Estimated